Time;durP1;ratioP1;P1;durP2;ratioP2;P2;SDS_P1;SDS_P2;PMS_P1;PMS_P2;Temp;Humidity;BMP_temperature;BMP_pressure;BME280_temperature;BME280_humidity;BME280_pressure;Samples;Min_cycle;Max_cycle;Signal;HPM_P1;HPM_P2
2022/04/21 00:00:32;;;;;;;;;;;;;;;;;;4979970;28;19950;-69
2022/04/21 00:02:58;;;;;;;;;;;;;;;;;;4981659;28;19920;-69
2022/04/21 00:05:24;;;;;;;;;;;;;;;;;;4981599;28;19913;-69
2022/04/21 00:07:50;;;;;;;;;;;;;;;;;;4980351;28;20227;-69
2022/04/21 00:10:16;;;;;;;;;;;;;;;;;;4979529;28;19948;-70
2022/04/21 00:12:42;;;;;;;;;;;;;;;;;;4963310;28;20356;-69
2022/04/21 00:15:08;;;;;;;;;;;;;;;;;;4980691;28;19929;-70
2022/04/21 00:17:34;;;;;;;;;;;;;;;;;;4982707;28;20267;-69
2022/04/21 00:20:00;;;;;;;;;;;;;;;;;;4982046;28;19975;-69
2022/04/21 00:25:11;;;;;;;;;;;;;;;;;;4980167;28;20048;-67
2022/04/21 00:27:37;;;;;;;;;;;;;;;;;;4984659;28;19921;-66
2022/04/21 00:30:06;;;;;;;;;;;;;;;;;;4983837;28;19995;-67
2022/04/21 00:32:32;;;;;;;;;;;;;;;;;;4983532;28;20282;-66
2022/04/21 00:34:58;;;;;;;;;;;;;;;;;;4984708;28;19913;-67
2022/04/21 00:37:24;;;;;;;;;;;;;;;;;;4980533;28;19920;-67
2022/04/21 00:39:50;;;;;;;;;;;;;;;;;;4962679;28;20498;-66
2022/04/21 00:42:19;;;;;;;;;;;;;;;;;;4957188;28;20355;-66
2022/04/21 00:44:46;;;;;;;;;;;;;;;;;;4963721;28;20359;-67
2022/04/21 00:47:12;;;;;;;;;;;;;;;;;;4960876;28;19914;-66
2022/04/21 00:49:38;;;;;;;;;;;;;;;;;;4980038;28;19960;-70
2022/04/21 00:52:04;;;;;;;;;;;;;;;;;;4982852;28;20214;-71
2022/04/21 00:54:30;;;;;;;;;;;;;;;;;;4984393;28;20248;-71
2022/04/21 00:56:56;;;;;;;;;;;;;;;;;;4983379;28;19917;-70
2022/04/21 00:59:22;;;;;;;;;;;;;;;;;;4977812;28;19921;-71
2022/04/21 01:04:33;;;;;;;;;;;;;;;;;;4982511;28;19919;-71
2022/04/21 01:07:00;;;;;;;;;;;;;;;;;;4980662;28;20000;-71
2022/04/21 01:09:26;;;;;;;;;;;;;;;;;;4976333;28;19917;-71
2022/04/21 01:11:52;;;;;;;;;;;;;;;;;;4963347;28;19967;-71
2022/04/21 01:14:19;;;;;;;;;;;;;;;;;;4958393;28;19995;-71
2022/04/21 01:16:46;;;;;;;;;;;;;;;;;;4964751;28;19913;-71
2022/04/21 01:19:12;;;;;;;;;;;;;;;;;;4980285;28;20133;-71
2022/04/21 01:21:38;;;;;;;;;;;;;;;;;;4981207;28;19920;-71
2022/04/21 01:24:07;;;;;;;;;;;;;;;;;;4963148;28;20610;-71
2022/04/21 01:26:36;;;;;;;;;;;;;;;;;;4963917;28;19983;-71
2022/04/21 01:29:03;;;;;;;;;;;;;;;;;;4980987;28;19917;-71
2022/04/21 01:31:29;;;;;;;;;;;;;;;;;;4957622;28;19913;-71
2022/04/21 01:33:55;;;;;;;;;;;;;;;;;;4978091;28;19913;-71
2022/04/21 01:36:21;;;;;;;;;;;;;;;;;;4980973;28;19913;-72
2022/04/21 01:41:31;;;;;;;;;;;;;;;;;;4979349;28;19920;-71
2022/04/21 01:43:57;;;;;;;;;;;;;;;;;;4964002;28;20242;-71
2022/04/21 01:46:23;;;;;;;;;;;;;;;;;;4977890;28;19917;-71
2022/04/21 01:48:49;;;;;;;;;;;;;;;;;;4983413;28;20272;-71
2022/04/21 01:51:15;;;;;;;;;;;;;;;;;;4963107;28;19952;-71
2022/04/21 01:53:41;;;;;;;;;;;;;;;;;;4984500;28;20471;-71
2022/04/21 01:56:07;;;;;;;;;;;;;;;;;;4983570;28;19940;-71
2022/04/21 01:58:33;;;;;;;;;;;;;;;;;;4986863;28;20386;-70
2022/04/21 02:00:59;;;;;;;;;;;;;;;;;;4984089;28;19913;-71
2022/04/21 02:03:25;;;;;;;;;;;;;;;;;;4983590;28;20305;-71
2022/04/21 02:05:51;;;;;;;;;;;;;;;;;;4984314;28;19978;-71
2022/04/21 02:08:17;;;;;;;;;;;;;;;;;;4984062;28;19967;-71
2022/04/21 02:10:43;;;;;;;;;;;;;;;;;;4984109;28;19913;-71
2022/04/21 02:13:10;;;;;;;;;;;;;;;;;;4980096;28;19944;-71
2022/04/21 02:15:36;;;;;;;;;;;;;;;;;;4966232;28;20390;-71
2022/04/21 02:18:02;;;;;;;;;;;;;;;;;;4981941;28;19996;-71
2022/04/21 02:20:28;;;;;;;;;;;;;;;;;;4963844;28;20359;-70
2022/04/21 02:22:54;;;;;;;;;;;;;;;;;;4959889;28;19940;-71
2022/04/21 02:25:20;;;;;;;;;;;;;;;;;;4980780;28;19913;-69
2022/04/21 02:27:46;;;;;;;;;;;;;;;;;;4987360;28;19913;-72
2022/04/21 02:30:13;;;;;;;;;;;;;;;;;;4980931;28;19921;-70
2022/04/21 02:32:39;;;;;;;;;;;;;;;;;;4966021;28;20274;-70
2022/04/21 02:35:05;;;;;;;;;;;;;;;;;;4983240;28;19914;-70
2022/04/21 02:37:31;;;;;;;;;;;;;;;;;;4982304;28;20020;-70
2022/04/21 02:39:57;;;;;;;;;;;;;;;;;;4984249;28;20364;-70
2022/04/21 02:42:23;;;;;;;;;;;;;;;;;;4978328;28;19929;-70
2022/04/21 02:44:49;;;;;;;;;;;;;;;;;;4982037;28;20016;-70
2022/04/21 02:47:15;;;;;;;;;;;;;;;;;;4982679;28;19991;-70
2022/04/21 02:49:45;;;;;;;;;;;;;;;;;;4980679;28;19917;-70
2022/04/21 02:52:11;;;;;;;;;;;;;;;;;;4963404;28;19949;-70
2022/04/21 02:57:22;;;;;;;;;;;;;;;;;;4980306;28;19920;-70
2022/04/21 02:59:48;;;;;;;;;;;;;;;;;;4984662;28;19917;-70
2022/04/21 03:02:14;;;;;;;;;;;;;;;;;;4981050;28;20369;-70
2022/04/21 03:04:40;;;;;;;;;;;;;;;;;;4980121;28;19921;-72
2022/04/21 03:07:06;;;;;;;;;;;;;;;;;;4967516;28;19964;-71
2022/04/21 03:09:32;;;;;;;;;;;;;;;;;;4960339;28;20016;-70
2022/04/21 03:11:58;;;;;;;;;;;;;;;;;;4981942;28;19917;-71
2022/04/21 03:14:24;;;;;;;;;;;;;;;;;;4981361;28;19975;-70
2022/04/21 03:16:50;;;;;;;;;;;;;;;;;;4967345;28;20389;-70
2022/04/21 03:19:16;;;;;;;;;;;;;;;;;;4980025;28;19914;-70
2022/04/21 03:24:29;;;;;;;;;;;;;;;;;;4981239;28;19991;-70
2022/04/21 03:26:55;;;;;;;;;;;;;;;;;;4968860;28;20297;-71
2022/04/21 03:29:21;;;;;;;;;;;;;;;;;;4980330;28;20482;-71
2022/04/21 03:31:48;;;;;;;;;;;;;;;;;;4979585;28;20007;-71
2022/04/21 03:34:14;;;;;;;;;;;;;;;;;;4962945;28;19928;-70
2022/04/21 03:36:49;;;;;;;;;;;;;;;;;;4982088;28;20391;-70
2022/04/21 03:39:15;;;;;;;;;;;;;;;;;;4961775;28;19913;-70
2022/04/21 03:41:41;;;;;;;;;;;;;;;;;;4984633;28;19913;-70
2022/04/21 03:44:07;;;;;;;;;;;;;;;;;;4982805;28;19928;-70
2022/04/21 03:46:33;;;;;;;;;;;;;;;;;;4981570;28;20371;-69
2022/04/21 03:48:59;;;;;;;;;;;;;;;;;;4982065;28;20230;-69
2022/04/21 03:51:27;;;;;;;;;;;;;;;;;;4961830;28;20669;-69
2022/04/21 03:53:53;;;;;;;;;;;;;;;;;;4977602;28;19918;-69
2022/04/21 03:56:19;;;;;;;;;;;;;;;;;;4963925;28;20303;-70
2022/04/21 03:58:45;;;;;;;;;;;;;;;;;;4965430;28;19917;-72
2022/04/21 04:01:11;;;;;;;;;;;;;;;;;;4961649;28;19963;-71
2022/04/21 04:03:38;;;;;;;;;;;;;;;;;;4982884;28;20364;-70
2022/04/21 04:10:51;;;;;;;;;;;;;;;;;;4984566;28;20020;-70
2022/04/21 04:11:35;;;;;;;;;;;;;;;;;;4982149;28;19933;-70
2022/04/21 04:14:00;;;;;;;;;;;;;;;;;;4964613;28;19921;-70
2022/04/21 04:16:28;;;;;;;;;;;;;;;;;;4961495;28;20146;-70
2022/04/21 04:18:54;;;;;;;;;;;;;;;;;;4965233;28;19919;-70
2022/04/21 04:21:20;;;;;;;;;;;;;;;;;;4978730;28;19913;-70
2022/04/21 04:23:46;;;;;;;;;;;;;;;;;;4979516;28;20293;-71
2022/04/21 04:26:12;;;;;;;;;;;;;;;;;;4962229;28;19913;-71
2022/04/21 04:28:38;;;;;;;;;;;;;;;;;;4984001;28;19924;-71
2022/04/21 04:31:04;;;;;;;;;;;;;;;;;;4979686;28;20001;-70
2022/04/21 04:33:30;;;;;;;;;;;;;;;;;;4959728;28;20400;-71
2022/04/21 04:35:56;;;;;;;;;;;;;;;;;;4978480;28;20394;-71
2022/04/21 04:38:22;;;;;;;;;;;;;;;;;;4978124;28;19983;-71
2022/04/21 04:40:48;;;;;;;;;;;;;;;;;;4980628;28;20020;-70
2022/04/21 04:43:14;;;;;;;;;;;;;;;;;;4959030;28;21029;-71
2022/04/21 04:48:25;;;;;;;;;;;;;;;;;;4978396;28;19982;-70
2022/04/21 04:50:51;;;;;;;;;;;;;;;;;;4960388;28;20289;-72
2022/04/21 04:53:17;;;;;;;;;;;;;;;;;;4973145;28;20341;-70
2022/04/21 04:55:43;;;;;;;;;;;;;;;;;;4980274;28;19921;-72
2022/04/21 04:58:09;;;;;;;;;;;;;;;;;;4963128;28;20267;-69
2022/04/21 05:00:35;;;;;;;;;;;;;;;;;;4982539;28;20669;-70
2022/04/21 05:03:01;;;;;;;;;;;;;;;;;;4965311;28;20363;-71
2022/04/21 05:05:28;;;;;;;;;;;;;;;;;;4980254;28;19921;-71
2022/04/21 05:07:54;;;;;;;;;;;;;;;;;;4963424;28;20771;-71
2022/04/21 05:10:22;;;;;;;;;;;;;;;;;;4959916;28;19917;-70
2022/04/21 05:12:48;;;;;;;;;;;;;;;;;;4982808;28;19914;-70
2022/04/21 05:15:14;;;;;;;;;;;;;;;;;;4979005;28;20000;-70
2022/04/21 05:17:40;;;;;;;;;;;;;;;;;;4980333;28;20036;-70
2022/04/21 05:20:06;;;;;;;;;;;;;;;;;;4980915;28;20279;-71
2022/04/21 05:22:37;;;;;;;;;;;;;;;;;;4959988;28;19913;-71
2022/04/21 05:25:03;;;;;;;;;;;;;;;;;;4981244;28;19917;-71
2022/04/21 05:27:30;;;;;;;;;;;;;;;;;;4983033;28;19940;-71
2022/04/21 05:32:41;;;;;;;;;;;;;;;;;;4982331;28;20154;-71
2022/04/21 05:35:07;;;;;;;;;;;;;;;;;;4971804;28;19923;-69
2022/04/21 05:37:35;;;;;;;;;;;;;;;;;;4967447;28;20441;-69
2022/04/21 05:40:01;;;;;;;;;;;;;;;;;;4970507;28;19921;-70
2022/04/21 05:42:30;;;;;;;;;;;;;;;;;;4978615;28;19967;-71
2022/04/21 05:44:56;;;;;;;;;;;;;;;;;;4985933;28;19976;-72
2022/04/21 05:47:22;;;;;;;;;;;;;;;;;;4982688;28;19913;-71
2022/04/21 05:49:48;;;;;;;;;;;;;;;;;;4984802;28;19918;-72
2022/04/21 05:52:14;;;;;;;;;;;;;;;;;;4962384;28;20285;-71
2022/04/21 05:54:40;;;;;;;;;;;;;;;;;;4984255;28;20364;-72
2022/04/21 05:57:06;;;;;;;;;;;;;;;;;;4981581;28;19944;-72
2022/04/21 05:59:32;;;;;;;;;;;;;;;;;;4984018;28;19919;-72
2022/04/21 06:01:59;;;;;;;;;;;;;;;;;;4984830;28;20461;-72
2022/04/21 06:04:25;;;;;;;;;;;;;;;;;;4982444;28;19959;-71
2022/04/21 06:06:51;;;;;;;;;;;;;;;;;;4983889;28;20240;-72
2022/04/21 06:09:17;;;;;;;;;;;;;;;;;;4976201;28;20389;-72
2022/04/21 06:11:43;;;;;;;;;;;;;;;;;;4985664;28;19913;-75
2022/04/21 06:14:09;;;;;;;;;;;;;;;;;;4981575;28;20455;-75
2022/04/21 06:16:35;;;;;;;;;;;;;;;;;;4986200;28;20481;-74
2022/04/21 06:19:01;;;;;;;;;;;;;;;;;;4983299;28;20364;-73
2022/04/21 06:21:27;;;;;;;;;;;;;;;;;;4964074;28;20576;-74
2022/04/21 06:23:53;;;;;;;;;;;;;;;;;;4983407;28;19914;-74
2022/04/21 06:26:18;;;;;;;;;;;;;;;;;;4981672;28;20323;-74
2022/04/21 06:28:45;;;;;;;;;;;;;;;;;;4983746;28;19944;-74
2022/04/21 06:31:11;;;;;;;;;;;;;;;;;;4974746;28;20643;-74
2022/04/21 06:33:37;;;;;;;;;;;;;;;;;;4978045;28;19913;-74
2022/04/21 06:36:03;;;;;;;;;;;;;;;;;;4980938;28;19920;-74
2022/04/21 06:38:29;;;;;;;;;;;;;;;;;;4976063;28;20375;-74
2022/04/21 06:40:55;;;;;;;;;;;;;;;;;;4974287;28;19924;-74
2022/04/21 06:48:50;;;;;;;;;;;;;;;;;;4973550;28;20001;-73
2022/04/21 06:51:18;;;;;;;;;;;;;;;;;;4970250;28;19917;-73
2022/04/21 06:53:44;;;;;;;;;;;;;;;;;;4974785;28;20292;-73
2022/04/21 06:56:13;;;;;;;;;;;;;;;;;;4972068;28;20257;-74
2022/04/21 06:58:40;;;;;;;;;;;;;;;;;;4979910;28;20374;-74
2022/04/21 07:01:06;;;;;;;;;;;;;;;;;;4959808;28;19918;-74
2022/04/21 07:03:33;;;;;;;;;;;;;;;;;;4975875;28;20398;-75
2022/04/21 07:06:00;;;;;;;;;;;;;;;;;;4974908;28;19918;-74
2022/04/21 07:08:26;;;;;;;;;;;;;;;;;;4952686;28;20367;-74
2022/04/21 07:10:52;;;;;;;;;;;;;;;;;;4956799;28;19919;-74
2022/04/21 07:13:18;;;;;;;;;;;;;;;;;;4972310;28;20295;-73
2022/04/21 07:15:44;;;;;;;;;;;;;;;;;;4979466;28;19928;-73
2022/04/21 07:18:11;;;;;;;;;;;;;;;;;;4974680;28;19913;-74
2022/04/21 07:20:37;;;;;;;;;;;;;;;;;;4947201;28;19918;-74
2022/04/21 07:23:04;;;;;;;;;;;;;;;;;;4976727;28;19917;-74
2022/04/21 07:25:30;;;;;;;;;;;;;;;;;;4975761;28;20348;-74
2022/04/21 07:27:56;;;;;;;;;;;;;;;;;;4975698;28;19917;-74
2022/04/21 07:30:22;;;;;;;;;;;;;;;;;;4975369;28;19917;-74
2022/04/21 07:32:48;;;;;;;;;;;;;;;;;;4977736;28;20019;-74
2022/04/21 07:35:14;;;;;;;;;;;;;;;;;;4972795;28;19920;-74
2022/04/21 07:37:41;;;;;;;;;;;;;;;;;;4977602;28;20490;-74
2022/04/21 07:40:07;;;;;;;;;;;;;;;;;;4975995;28;19921;-74
2022/04/21 07:42:32;;;;;;;;;;;;;;;;;;4963308;28;20330;-74
2022/04/21 07:44:58;;;;;;;;;;;;;;;;;;4977612;28;20040;-74
2022/04/21 07:47:24;;;;;;;;;;;;;;;;;;4959091;28;19917;-74
2022/04/21 07:49:50;;;;;;;;;;;;;;;;;;4971985;28;19961;-74
2022/04/21 07:55:01;;;;;;;;;;;;;;;;;;4975210;28;19940;-74
2022/04/21 07:57:27;;;;;;;;;;;;;;;;;;4973660;28;19917;-74
2022/04/21 07:59:53;;;;;;;;;;;;;;;;;;4974812;28;19921;-74
2022/04/21 08:02:19;;;;;;;;;;;;;;;;;;4954975;28;21440;-74
2022/04/21 08:04:47;;;;;;;;;;;;;;;;;;4968968;28;19914;-73
2022/04/21 08:07:13;;;;;;;;;;;;;;;;;;4969458;28;19917;-73
2022/04/21 08:09:40;;;;;;;;;;;;;;;;;;4975345;28;19999;-73
2022/04/21 08:12:07;;;;;;;;;;;;;;;;;;4958017;28;19941;-75
2022/04/21 08:14:33;;;;;;;;;;;;;;;;;;4967960;28;19972;-74
2022/04/21 08:16:59;;;;;;;;;;;;;;;;;;4954369;28;19919;-74
2022/04/21 08:19:25;;;;;;;;;;;;;;;;;;4970998;28;19921;-74
2022/04/21 08:21:51;;;;;;;;;;;;;;;;;;4975978;28;19967;-74
2022/04/21 08:32:41;;;;;;;;;;;;;;;;;;4970687;28;19920;-71
2022/04/21 08:35:07;;;;;;;;;;;;;;;;;;4977290;28;20278;-71
2022/04/21 08:37:36;;;;;;;;;;;;;;;;;;4957559;28;19921;-71
2022/04/21 08:40:01;;;;;;;;;;;;;;;;;;4959725;28;19920;-71
2022/04/21 08:42:27;;;;;;;;;;;;;;;;;;4972876;28;23416;-71
2022/04/21 08:44:53;;;;;;;;;;;;;;;;;;4959595;28;19922;-71
2022/04/21 08:47:19;;;;;;;;;;;;;;;;;;4970810;28;19921;-71
2022/04/21 08:49:45;;;;;;;;;;;;;;;;;;4972300;28;19980;-71
2022/04/21 08:52:12;;;;;;;;;;;;;;;;;;4954764;28;20342;-71
2022/04/21 08:54:38;;;;;;;;;;;;;;;;;;4975053;28;20029;-72
2022/04/21 08:57:04;;;;;;;;;;;;;;;;;;4971360;28;20333;-72
2022/04/21 08:59:30;;;;;;;;;;;;;;;;;;4969749;28;19936;-73
2022/04/21 09:01:56;;;;;;;;;;;;;;;;;;4980497;28;19914;-71
2022/04/21 09:04:22;;;;;;;;;;;;;;;;;;4976008;28;19914;-71
2022/04/21 09:06:48;;;;;;;;;;;;;;;;;;4963323;28;19917;-72
2022/04/21 09:09:14;;;;;;;;;;;;;;;;;;4955151;28;20470;-72
2022/04/21 09:11:42;;;;;;;;;;;;;;;;;;4958291;28;20662;-73
2022/04/21 09:14:08;;;;;;;;;;;;;;;;;;4975916;28;19964;-72
2022/04/21 09:16:34;;;;;;;;;;;;;;;;;;4977709;28;20008;-72
2022/04/21 09:19:00;;;;;;;;;;;;;;;;;;4957660;28;20699;-71
2022/04/21 09:21:26;;;;;;;;;;;;;;;;;;4970797;28;20134;-71
2022/04/21 09:23:54;;;;;;;;;;;;;;;;;;4974605;28;19990;-73
2022/04/21 09:26:21;;;;;;;;;;;;;;;;;;4971147;28;20474;-71
2022/04/21 09:28:47;;;;;;;;;;;;;;;;;;4978368;28;19951;-73
2022/04/21 09:31:13;;;;;;;;;;;;;;;;;;4959910;28;20439;-72
2022/04/21 09:33:40;;;;;;;;;;;;;;;;;;4965983;28;19995;-71
2022/04/21 09:36:06;;;;;;;;;;;;;;;;;;4980188;28;19913;-72
2022/04/21 09:38:34;;;;;;;;;;;;;;;;;;4972566;28;20446;-72
2022/04/21 09:41:00;;;;;;;;;;;;;;;;;;4962642;28;20469;-72
2022/04/21 09:43:26;;;;;;;;;;;;;;;;;;4974171;28;19917;-72
2022/04/21 09:46:08;;;;;;;;;;;;;;;;;;4959448;28;19945;-72
2022/04/21 09:48:34;;;;;;;;;;;;;;;;;;4974216;28;20016;-72
2022/04/21 09:51:00;;;;;;;;;;;;;;;;;;4960994;28;19957;-71
2022/04/21 09:53:26;;;;;;;;;;;;;;;;;;4952991;28;20448;-72
2022/04/21 09:55:52;;;;;;;;;;;;;;;;;;4990552;28;20237;-72
2022/04/21 09:58:18;;;;;;;;;;;;;;;;;;4978679;28;19929;-72
2022/04/21 10:00:44;;;;;;;;;;;;;;;;;;4981268;28;19913;-72
2022/04/21 10:03:10;;;;;;;;;;;;;;;;;;4961318;28;19921;-72
2022/04/21 10:05:37;;;;;;;;;;;;;;;;;;4975672;28;19914;-72
2022/04/21 10:08:02;;;;;;;;;;;;;;;;;;4974092;28;19913;-72
2022/04/21 10:10:29;;;;;;;;;;;;;;;;;;4971252;28;19945;-74
2022/04/21 10:12:55;;;;;;;;;;;;;;;;;;4964676;28;20598;-72
2022/04/21 10:15:21;;;;;;;;;;;;;;;;;;4974268;28;19925;-73
2022/04/21 10:17:47;;;;;;;;;;;;;;;;;;4978487;28;19914;-73
2022/04/21 10:20:13;;;;;;;;;;;;;;;;;;4974581;28;19951;-72
2022/04/21 10:22:39;;;;;;;;;;;;;;;;;;4976285;28;20276;-74
2022/04/21 10:25:05;;;;;;;;;;;;;;;;;;4963462;28;20001;-72
2022/04/21 10:27:31;;;;;;;;;;;;;;;;;;4978180;28;20007;-71
2022/04/21 10:29:57;;;;;;;;;;;;;;;;;;4975823;28;20369;-72
2022/04/21 10:32:23;;;;;;;;;;;;;;;;;;4959304;28;19966;-71
2022/04/21 10:34:55;;;;;;;;;;;;;;;;;;4957188;28;19916;-72
2022/04/21 10:37:21;;;;;;;;;;;;;;;;;;4976306;28;19914;-71
2022/04/21 10:39:47;;;;;;;;;;;;;;;;;;4962865;28;19913;-72
2022/04/21 10:42:14;;;;;;;;;;;;;;;;;;4974334;28;20521;-72
2022/04/21 10:44:40;;;;;;;;;;;;;;;;;;4974086;28;19917;-71
2022/04/21 10:47:06;;;;;;;;;;;;;;;;;;4973774;28;19914;-71
2022/04/21 10:49:32;;;;;;;;;;;;;;;;;;4956058;28;19944;-71
2022/04/21 10:57:20;;;;;;;;;;;;;;;;;;4974222;28;20017;-72
2022/04/21 10:59:46;;;;;;;;;;;;;;;;;;4962044;28;19921;-71
2022/04/21 11:02:12;;;;;;;;;;;;;;;;;;4976995;28;19964;-73
2022/04/21 11:04:38;;;;;;;;;;;;;;;;;;4978245;28;19968;-73
2022/04/21 11:07:04;;;;;;;;;;;;;;;;;;4977691;28;19913;-72
2022/04/21 11:09:30;;;;;;;;;;;;;;;;;;4966003;28;20370;-71
2022/04/21 11:11:57;;;;;;;;;;;;;;;;;;4975135;28;19917;-72
2022/04/21 11:14:23;;;;;;;;;;;;;;;;;;4975109;28;20031;-71
2022/04/21 11:16:49;;;;;;;;;;;;;;;;;;4985248;28;20321;-71
2022/04/21 11:19:15;;;;;;;;;;;;;;;;;;4981254;28;20244;-72
2022/04/21 11:21:41;;;;;;;;;;;;;;;;;;4972303;28;19913;-72
2022/04/21 11:24:07;;;;;;;;;;;;;;;;;;4973945;28;19991;-72
2022/04/21 11:26:33;;;;;;;;;;;;;;;;;;4972021;28;19913;-72
2022/04/21 11:28:59;;;;;;;;;;;;;;;;;;4974474;28;22000;-72
2022/04/21 11:31:25;;;;;;;;;;;;;;;;;;4972851;28;20347;-72
2022/04/21 11:33:51;;;;;;;;;;;;;;;;;;4977363;28;20024;-71
2022/04/21 11:36:17;;;;;;;;;;;;;;;;;;4975265;28;19996;-71
2022/04/21 11:38:43;;;;;;;;;;;;;;;;;;4981944;28;20004;-72
2022/04/21 11:41:09;;;;;;;;;;;;;;;;;;4958267;28;20326;-72
2022/04/21 11:43:35;;;;;;;;;;;;;;;;;;4977645;28;19987;-72
2022/04/21 11:46:01;;;;;;;;;;;;;;;;;;4976030;28;20573;-71
2022/04/21 11:48:27;;;;;;;;;;;;;;;;;;4971459;28;19924;-71
2022/04/21 11:50:54;;;;;;;;;;;;;;;;;;4970887;28;19921;-71
2022/04/21 11:53:20;;;;;;;;;;;;;;;;;;4971402;28;20270;-71
2022/04/21 11:55:46;;;;;;;;;;;;;;;;;;4975694;28;20063;-71
2022/04/21 11:58:12;;;;;;;;;;;;;;;;;;4974174;28;19913;-71
2022/04/21 12:08:53;;;;;;;;;;;;;;;;;;4974010;28;19967;-72
2022/04/21 12:11:18;;;;;;;;;;;;;;;;;;4968437;28;20304;-72
2022/04/21 12:13:44;;;;;;;;;;;;;;;;;;4975657;28;19920;-70
2022/04/21 12:16:10;;;;;;;;;;;;;;;;;;4972289;28;20160;-70
2022/04/21 12:18:36;;;;;;;;;;;;;;;;;;4975269;28;19960;-71
2022/04/21 12:21:02;;;;;;;;;;;;;;;;;;4976721;28;20316;-70
2022/04/21 12:23:28;;;;;;;;;;;;;;;;;;4971605;28;19975;-72
2022/04/21 12:25:54;;;;;;;;;;;;;;;;;;4975261;28;19921;-72
2022/04/21 12:28:20;;;;;;;;;;;;;;;;;;4973738;28;20562;-73
2022/04/21 12:30:46;;;;;;;;;;;;;;;;;;4977982;28;19951;-73
2022/04/21 12:33:12;;;;;;;;;;;;;;;;;;4968106;28;19914;-70
2022/04/21 12:35:38;;;;;;;;;;;;;;;;;;4973992;28;19913;-72
2022/04/21 12:40:49;;;;;;;;;;;;;;;;;;4975520;28;19986;-72
2022/04/21 12:43:15;;;;;;;;;;;;;;;;;;4974684;28;19917;-72
2022/04/21 12:45:41;;;;;;;;;;;;;;;;;;4978406;28;19913;-72
2022/04/21 12:48:07;;;;;;;;;;;;;;;;;;4979551;28;19920;-75
2022/04/21 12:50:36;;;;;;;;;;;;;;;;;;4976953;28;20001;-72
2022/04/21 12:53:02;;;;;;;;;;;;;;;;;;4973034;28;19921;-72
2022/04/21 12:55:28;;;;;;;;;;;;;;;;;;4956372;28;22035;-72
2022/04/21 12:57:54;;;;;;;;;;;;;;;;;;4982739;28;19980;-72
2022/04/21 13:00:20;;;;;;;;;;;;;;;;;;4983963;28;19917;-72
2022/04/21 13:02:46;;;;;;;;;;;;;;;;;;4966281;28;19952;-72
2022/04/21 13:05:12;;;;;;;;;;;;;;;;;;4957817;28;19960;-71
2022/04/21 13:07:38;;;;;;;;;;;;;;;;;;4976743;28;19997;-73
2022/04/21 13:10:04;;;;;;;;;;;;;;;;;;4960538;28;19921;-72
2022/04/21 13:12:30;;;;;;;;;;;;;;;;;;4969707;28;20436;-73
2022/04/21 13:14:56;;;;;;;;;;;;;;;;;;4952760;28;20375;-72
2022/04/21 13:17:22;;;;;;;;;;;;;;;;;;4957596;28;20691;-71
2022/04/21 13:19:48;;;;;;;;;;;;;;;;;;4960568;28;20337;-67
2022/04/21 13:22:14;;;;;;;;;;;;;;;;;;4951628;28;20547;-68
2022/04/21 13:24:40;;;;;;;;;;;;;;;;;;4958862;28;20509;-68
2022/04/21 13:27:06;;;;;;;;;;;;;;;;;;4956821;28;20349;-67
2022/04/21 13:29:33;;;;;;;;;;;;;;;;;;4955204;28;20381;-67
2022/04/21 13:34:44;;;;;;;;;;;;;;;;;;4957988;28;20433;-69
2022/04/21 13:37:11;;;;;;;;;;;;;;;;;;4956199;28;20348;-69
2022/04/21 13:39:39;;;;;;;;;;;;;;;;;;4945534;28;20301;-68
2022/04/21 13:42:05;;;;;;;;;;;;;;;;;;4945329;28;19918;-67
2022/04/21 13:44:31;;;;;;;;;;;;;;;;;;4952696;28;19925;-69
2022/04/21 13:46:58;;;;;;;;;;;;;;;;;;4938501;28;19914;-67
2022/04/21 13:49:24;;;;;;;;;;;;;;;;;;4957487;28;19925;-68
2022/04/21 13:51:50;;;;;;;;;;;;;;;;;;4960209;28;19914;-68
2022/04/21 13:54:17;;;;;;;;;;;;;;;;;;4957963;28;20226;-68
2022/04/21 13:56:43;;;;;;;;;;;;;;;;;;4948496;28;19913;-68
2022/04/21 13:59:10;;;;;;;;;;;;;;;;;;4957946;28;19964;-67
2022/04/21 14:01:36;;;;;;;;;;;;;;;;;;4962834;28;20811;-68
2022/04/21 14:04:02;;;;;;;;;;;;;;;;;;4967163;28;19973;-67
2022/04/21 14:06:28;;;;;;;;;;;;;;;;;;4944109;28;22581;-68
2022/04/21 14:08:54;;;;;;;;;;;;;;;;;;4964858;28;19918;-67
2022/04/21 14:11:20;;;;;;;;;;;;;;;;;;4958365;28;20384;-68
2022/04/21 14:13:47;;;;;;;;;;;;;;;;;;4964458;28;20257;-68
2022/04/21 14:16:13;;;;;;;;;;;;;;;;;;4976243;28;19923;-67
2022/04/21 14:18:39;;;;;;;;;;;;;;;;;;4980105;28;19914;-67
2022/04/21 14:21:08;;;;;;;;;;;;;;;;;;4981449;28;19975;-67
2022/04/21 14:23:37;;;;;;;;;;;;;;;;;;4980550;28;19918;-67
2022/04/21 14:26:03;;;;;;;;;;;;;;;;;;4980129;28;19921;-67
2022/04/21 14:28:29;;;;;;;;;;;;;;;;;;4975708;28;19913;-67
2022/04/21 14:30:55;;;;;;;;;;;;;;;;;;4981472;28;20399;-67
2022/04/21 14:33:23;;;;;;;;;;;;;;;;;;4976900;28;19971;-68
2022/04/21 14:35:50;;;;;;;;;;;;;;;;;;4963115;28;19920;-67
2022/04/21 14:46:30;;;;;;;;;;;;;;;;;;4982269;28;20278;-67
2022/04/21 14:48:56;;;;;;;;;;;;;;;;;;4981893;28;19914;-67
2022/04/21 14:51:22;;;;;;;;;;;;;;;;;;4975491;28;19913;-67
2022/04/21 14:53:48;;;;;;;;;;;;;;;;;;4957790;28;19920;-68
2022/04/21 14:56:14;;;;;;;;;;;;;;;;;;4958930;28;20470;-70
2022/04/21 14:58:40;;;;;;;;;;;;;;;;;;4964321;28;19987;-68
2022/04/21 15:01:06;;;;;;;;;;;;;;;;;;4978310;28;21265;-67
2022/04/21 15:03:32;;;;;;;;;;;;;;;;;;4978241;28;20454;-68
2022/04/21 15:05:58;;;;;;;;;;;;;;;;;;4980371;28;19923;-67
2022/04/21 15:08:25;;;;;;;;;;;;;;;;;;4978245;28;20353;-66
2022/04/21 15:10:51;;;;;;;;;;;;;;;;;;4981538;28;20183;-69
2022/04/21 15:13:18;;;;;;;;;;;;;;;;;;4973203;28;20215;-67
2022/04/21 15:15:44;;;;;;;;;;;;;;;;;;4974890;28;19925;-67
2022/04/21 15:18:10;;;;;;;;;;;;;;;;;;4970608;28;19957;-67
2022/04/21 15:20:37;;;;;;;;;;;;;;;;;;4972180;28;20008;-68
2022/04/21 15:23:03;;;;;;;;;;;;;;;;;;4970753;28;20345;-68
2022/04/21 15:25:29;;;;;;;;;;;;;;;;;;4972345;28;20047;-67
2022/04/21 15:27:57;;;;;;;;;;;;;;;;;;4974374;28;20189;-66
2022/04/21 15:30:25;;;;;;;;;;;;;;;;;;4970618;28;20455;-67
2022/04/21 15:32:51;;;;;;;;;;;;;;;;;;4970102;28;19987;-66
2022/04/21 15:35:17;;;;;;;;;;;;;;;;;;4968702;28;20354;-67
2022/04/21 15:37:43;;;;;;;;;;;;;;;;;;4973399;28;19914;-67
2022/04/21 15:40:09;;;;;;;;;;;;;;;;;;4969950;28;19961;-67
2022/04/21 15:42:35;;;;;;;;;;;;;;;;;;4956395;28;19913;-68
2022/04/21 15:45:01;;;;;;;;;;;;;;;;;;4961667;28;19921;-67
2022/04/21 15:47:27;;;;;;;;;;;;;;;;;;4955346;28;19935;-67
2022/04/21 15:49:53;;;;;;;;;;;;;;;;;;4971903;28;19918;-67
2022/04/21 15:52:19;;;;;;;;;;;;;;;;;;4955762;28;19963;-67
2022/04/21 16:00:15;;;;;;;;;;;;;;;;;;4968132;28;20034;-67
2022/04/21 16:02:43;;;;;;;;;;;;;;;;;;4975452;28;19918;-67
2022/04/21 16:05:09;;;;;;;;;;;;;;;;;;4970861;28;19960;-66
2022/04/21 16:07:35;;;;;;;;;;;;;;;;;;4959876;28;20236;-68
2022/04/21 16:10:01;;;;;;;;;;;;;;;;;;4954667;28;20320;-67
2022/04/21 16:12:27;;;;;;;;;;;;;;;;;;4970129;28;20427;-67
2022/04/21 16:14:53;;;;;;;;;;;;;;;;;;4953699;28;19926;-68
2022/04/21 16:17:19;;;;;;;;;;;;;;;;;;4955339;28;19914;-67
2022/04/21 16:19:45;;;;;;;;;;;;;;;;;;4972543;28;19918;-67
2022/04/21 16:22:11;;;;;;;;;;;;;;;;;;4971176;28;19995;-68
2022/04/21 16:24:37;;;;;;;;;;;;;;;;;;4972683;28;20466;-67
2022/04/21 16:27:03;;;;;;;;;;;;;;;;;;4975182;28;19964;-67
2022/04/21 16:29:29;;;;;;;;;;;;;;;;;;5046035;23;21128;-68
2022/04/21 16:31:57;;;;;;;;;;;;;;;;;;4970284;28;20509;-68
2022/04/21 16:34:23;;;;;;;;;;;;;;;;;;4974042;28;20373;-68
2022/04/21 16:36:49;;;;;;;;;;;;;;;;;;4975270;28;19948;-64
2022/04/21 16:39:15;;;;;;;;;;;;;;;;;;4963663;28;20498;-72
2022/04/21 16:41:41;;;;;;;;;;;;;;;;;;4970520;28;19914;-71
2022/04/21 16:44:07;;;;;;;;;;;;;;;;;;4961647;28;19921;-72
2022/04/21 16:46:33;;;;;;;;;;;;;;;;;;4954318;28;19945;-70
2022/04/21 16:48:59;;;;;;;;;;;;;;;;;;4960693;28;20363;-72
2022/04/21 16:51:25;;;;;;;;;;;;;;;;;;4971977;28;19964;-71
2022/04/21 16:53:51;;;;;;;;;;;;;;;;;;4970323;28;20335;-71
2022/04/21 16:56:17;;;;;;;;;;;;;;;;;;4966150;28;20362;-72
2022/04/21 16:58:43;;;;;;;;;;;;;;;;;;4972903;28;19917;-71
2022/04/21 17:03:54;;;;;;;;;;;;;;;;;;4972629;28;20008;-72
2022/04/21 17:06:20;;;;;;;;;;;;;;;;;;4973187;28;20404;-71
2022/04/21 17:08:46;;;;;;;;;;;;;;;;;;4968315;28;20556;-71
2022/04/21 17:11:13;;;;;;;;;;;;;;;;;;4961297;28;19925;-71
2022/04/21 17:13:39;;;;;;;;;;;;;;;;;;4970658;28;19967;-72
2022/04/21 17:16:05;;;;;;;;;;;;;;;;;;4959037;28;19913;-71
2022/04/21 17:18:31;;;;;;;;;;;;;;;;;;4962580;28;19917;-71
2022/04/21 17:20:57;;;;;;;;;;;;;;;;;;4970443;28;20496;-71
2022/04/21 17:23:23;;;;;;;;;;;;;;;;;;4971127;28;19920;-71
2022/04/21 17:25:49;;;;;;;;;;;;;;;;;;4980172;28;20347;-71
2022/04/21 17:28:15;;;;;;;;;;;;;;;;;;4977569;28;20248;-71
2022/04/21 17:30:43;;;;;;;;;;;;;;;;;;4974494;28;19930;-73
2022/04/21 17:33:09;;;;;;;;;;;;;;;;;;4973260;28;19924;-71
2022/04/21 17:35:41;;;;;;;;;;;;;;;;;;4948300;28;20000;-72
2022/04/21 17:38:07;;;;;;;;;;;;;;;;;;4965340;28;19963;-72
2022/04/21 17:40:33;;;;;;;;;;;;;;;;;;4962199;28;19913;-72
2022/04/21 17:42:59;;;;;;;;;;;;;;;;;;4963864;28;20004;-71
2022/04/21 17:45:25;;;;;;;;;;;;;;;;;;4960187;28;20221;-70
2022/04/21 17:47:51;;;;;;;;;;;;;;;;;;4963220;28;19960;-72
2022/04/21 17:50:17;;;;;;;;;;;;;;;;;;4959406;28;19943;-71
2022/04/21 17:52:43;;;;;;;;;;;;;;;;;;4962622;28;20376;-73